Maldives

Resources for Maldives vACC

Active Sector File
vatwa-srm.rar | Release date 6/1/2016 | Downloads 17 | File Size 0.55 MB

Alias File
vccc-vrmf-alias.zip | Downloads 17 | File Size 2.11 KB

Position File
vccc-vrmf-pof.zip | Downloads 15 | File Size 3.03 KB

Crib File
VRMM_Crib.pdf | Downloads 18 | File Size 0.54 MB 

VATSIM Metar for Maldives
VRMM 221100Z 07020KT 9999 SCT018TCU SCT130 31/25 Q1008 NOSIG